sensor_id;sensor_type;location;lat;lon;timestamp;pressure;altitude;pressure_sealevel;temperature;humidity
31771;BME280;18343;50.152;8.182;2022-07-04T00:01:59;97762.34;;;15.53;88.43
31771;BME280;18343;50.152;8.182;2022-07-04T00:04:31;97763.53;;;15.70;86.67
31771;BME280;18343;50.152;8.182;2022-07-04T00:06:59;97764.56;;;15.69;87.17
31771;BME280;18343;50.152;8.182;2022-07-04T00:09:27;97765.50;;;15.56;88.13
31771;BME280;18343;50.152;8.182;2022-07-04T00:11:55;97760.69;;;15.52;90.40
31771;BME280;18343;50.152;8.182;2022-07-04T00:14:23;97768.63;;;15.40;90.58
31771;BME280;18343;50.152;8.182;2022-07-04T00:16:51;97767.19;;;15.38;91.61
31771;BME280;18343;50.152;8.182;2022-07-04T00:19:18;97766.56;;;15.36;91.18
31771;BME280;18343;50.152;8.182;2022-07-04T00:21:45;97764.53;;;15.24;90.64
31771;BME280;18343;50.152;8.182;2022-07-04T00:24:13;97764.66;;;15.43;90.38
31771;BME280;18343;50.152;8.182;2022-07-04T00:26:42;97772.19;;;15.41;90.31
31771;BME280;18343;50.152;8.182;2022-07-04T00:29:09;97768.31;;;15.23;92.18
31771;BME280;18343;50.152;8.182;2022-07-04T00:31:37;97772.09;;;15.09;91.71
31771;BME280;18343;50.152;8.182;2022-07-04T00:34:05;97768.72;;;15.20;93.16
31771;BME280;18343;50.152;8.182;2022-07-04T00:36:32;97756.88;;;15.15;92.91
31771;BME280;18343;50.152;8.182;2022-07-04T00:38:59;97752.13;;;15.04;93.87
31771;BME280;18343;50.152;8.182;2022-07-04T00:41:27;97756.72;;;15.03;93.53
31771;BME280;18343;50.152;8.182;2022-07-04T00:44:07;97760.31;;;14.71;97.94
31771;BME280;18343;50.152;8.182;2022-07-04T00:46:39;97763.66;;;14.53;99.84
31771;BME280;18343;50.152;8.182;2022-07-04T00:49:07;97763.66;;;14.53;100.00
31771;BME280;18343;50.152;8.182;2022-07-04T00:51:35;97757.63;;;14.64;98.17
31771;BME280;18343;50.152;8.182;2022-07-04T00:54:06;97757.19;;;14.67;97.93
31771;BME280;18343;50.152;8.182;2022-07-04T00:56:37;97762.19;;;14.64;99.39
31771;BME280;18343;50.152;8.182;2022-07-04T00:59:07;97755.91;;;14.83;95.44
31771;BME280;18343;50.152;8.182;2022-07-04T01:01:34;97752.34;;;14.89;96.10
31771;BME280;18343;50.152;8.182;2022-07-04T01:04:04;97752.81;;;14.27;99.81
31771;BME280;18343;50.152;8.182;2022-07-04T01:06:32;97754.28;;;13.89;100.00
31771;BME280;18343;50.152;8.182;2022-07-04T01:09:02;97763.59;;;13.80;100.00
31771;BME280;18343;50.152;8.182;2022-07-04T01:11:29;97765.66;;;13.65;100.00
31771;BME280;18343;50.152;8.182;2022-07-04T01:13:57;97765.91;;;13.83;100.00
31771;BME280;18343;50.152;8.182;2022-07-04T01:16:26;97765.03;;;13.76;100.00
31771;BME280;18343;50.152;8.182;2022-07-04T01:18:57;97767.78;;;13.89;100.00
31771;BME280;18343;50.152;8.182;2022-07-04T01:21:31;97771.31;;;14.03;100.00
31771;BME280;18343;50.152;8.182;2022-07-04T01:24:00;97768.03;;;14.14;100.00
31771;BME280;18343;50.152;8.182;2022-07-04T01:26:29;97769.28;;;14.18;100.00
31771;BME280;18343;50.152;8.182;2022-07-04T01:28:57;97766.16;;;14.15;100.00
31771;BME280;18343;50.152;8.182;2022-07-04T01:31:24;97775.50;;;14.32;100.00
31771;BME280;18343;50.152;8.182;2022-07-04T01:33:52;97777.16;;;14.00;100.00
31771;BME280;18343;50.152;8.182;2022-07-04T01:36:19;97773.97;;;13.70;100.00
31771;BME280;18343;50.152;8.182;2022-07-04T01:38:48;97777.78;;;14.09;100.00
31771;BME280;18343;50.152;8.182;2022-07-04T01:41:15;97780.69;;;13.87;100.00
31771;BME280;18343;50.152;8.182;2022-07-04T01:43:45;97780.84;;;13.66;100.00
31771;BME280;18343;50.152;8.182;2022-07-04T01:46:13;97788.25;;;13.51;100.00
31771;BME280;18343;50.152;8.182;2022-07-04T01:48:41;97788.34;;;13.77;100.00
31771;BME280;18343;50.152;8.182;2022-07-04T01:51:08;97794.13;;;13.68;100.00
31771;BME280;18343;50.152;8.182;2022-07-04T01:53:36;97787.06;;;13.60;100.00
31771;BME280;18343;50.152;8.182;2022-07-04T01:56:06;97783.53;;;13.66;100.00
31771;BME280;18343;50.152;8.182;2022-07-04T01:58:34;97787.50;;;13.77;100.00
31771;BME280;18343;50.152;8.182;2022-07-04T02:01:02;97800.78;;;13.65;100.00
31771;BME280;18343;50.152;8.182;2022-07-04T02:03:46;97801.78;;;13.51;100.00
31771;BME280;18343;50.152;8.182;2022-07-04T02:06:14;97798.28;;;13.64;100.00
31771;BME280;18343;50.152;8.182;2022-07-04T02:08:41;97800.50;;;13.47;100.00
31771;BME280;18343;50.152;8.182;2022-07-04T02:11:27;97813.13;;;13.33;100.00
31771;BME280;18343;50.152;8.182;2022-07-04T02:14:14;97810.88;;;13.37;100.00
31771;BME280;18343;50.152;8.182;2022-07-04T02:16:41;97809.44;;;13.47;100.00
31771;BME280;18343;50.152;8.182;2022-07-04T02:19:08;97806.75;;;13.13;100.00
31771;BME280;18343;50.152;8.182;2022-07-04T02:21:35;97815.31;;;12.82;100.00
31771;BME280;18343;50.152;8.182;2022-07-04T02:24:03;97814.88;;;12.78;100.00
31771;BME280;18343;50.152;8.182;2022-07-04T02:26:32;97817.00;;;12.55;100.00
31771;BME280;18343;50.152;8.182;2022-07-04T02:29:00;97813.84;;;12.51;100.00
31771;BME280;18343;50.152;8.182;2022-07-04T02:31:27;97826.97;;;12.33;100.00
31771;BME280;18343;50.152;8.182;2022-07-04T02:33:54;97831.00;;;12.44;100.00
31771;BME280;18343;50.152;8.182;2022-07-04T02:36:21;97842.53;;;12.59;100.00
31771;BME280;18343;50.152;8.182;2022-07-04T02:38:49;97831.72;;;12.52;100.00
31771;BME280;18343;50.152;8.182;2022-07-04T02:41:16;97839.41;;;12.83;100.00
31771;BME280;18343;50.152;8.182;2022-07-04T02:43:45;97836.03;;;12.75;100.00
31771;BME280;18343;50.152;8.182;2022-07-04T02:46:13;97825.66;;;12.78;100.00
31771;BME280;18343;50.152;8.182;2022-07-04T02:48:40;97829.34;;;12.71;100.00
31771;BME280;18343;50.152;8.182;2022-07-04T02:51:08;97839.00;;;12.59;100.00
31771;BME280;18343;50.152;8.182;2022-07-04T02:53:35;97830.69;;;12.60;100.00
31771;BME280;18343;50.152;8.182;2022-07-04T02:56:03;97833.97;;;12.49;100.00
31771;BME280;18343;50.152;8.182;2022-07-04T02:58:31;97829.91;;;12.38;100.00
31771;BME280;18343;50.152;8.182;2022-07-04T03:01:00;97835.75;;;12.42;100.00
31771;BME280;18343;50.152;8.182;2022-07-04T03:03:28;97834.59;;;12.51;100.00
31771;BME280;18343;50.152;8.182;2022-07-04T03:05:55;97836.53;;;12.57;100.00
31771;BME280;18343;50.152;8.182;2022-07-04T03:08:23;97838.31;;;12.50;100.00
31771;BME280;18343;50.152;8.182;2022-07-04T03:10:50;97839.53;;;12.47;100.00
31771;BME280;18343;50.152;8.182;2022-07-04T03:13:19;97854.56;;;12.35;100.00
31771;BME280;18343;50.152;8.182;2022-07-04T03:15:46;97842.94;;;12.35;100.00
31771;BME280;18343;50.152;8.182;2022-07-04T03:18:15;97853.75;;;12.13;100.00
31771;BME280;18343;50.152;8.182;2022-07-04T03:20:42;97844.38;;;12.09;100.00
31771;BME280;18343;50.152;8.182;2022-07-04T03:23:10;97849.19;;;12.14;100.00
31771;BME280;18343;50.152;8.182;2022-07-04T03:25:40;97843.19;;;12.40;100.00
31771;BME280;18343;50.152;8.182;2022-07-04T03:28:07;97843.41;;;11.96;100.00
31771;BME280;18343;50.152;8.182;2022-07-04T03:30:35;97846.94;;;11.96;100.00
31771;BME280;18343;50.152;8.182;2022-07-04T03:33:03;97855.78;;;12.11;100.00
31771;BME280;18343;50.152;8.182;2022-07-04T03:35:34;97850.59;;;12.10;100.00
31771;BME280;18343;50.152;8.182;2022-07-04T03:38:02;97859.50;;;12.32;100.00
31771;BME280;18343;50.152;8.182;2022-07-04T03:40:29;97853.16;;;12.18;100.00
31771;BME280;18343;50.152;8.182;2022-07-04T03:42:58;97857.91;;;12.16;100.00
31771;BME280;18343;50.152;8.182;2022-07-04T03:45:26;97858.38;;;12.19;100.00
31771;BME280;18343;50.152;8.182;2022-07-04T03:47:53;97853.84;;;11.84;100.00
31771;BME280;18343;50.152;8.182;2022-07-04T03:50:22;97854.06;;;11.53;100.00
31771;BME280;18343;50.152;8.182;2022-07-04T03:52:53;97859.50;;;11.38;100.00
31771;BME280;18343;50.152;8.182;2022-07-04T03:55:20;97862.78;;;11.55;100.00
31771;BME280;18343;50.152;8.182;2022-07-04T03:57:48;97862.06;;;11.61;100.00
31771;BME280;18343;50.152;8.182;2022-07-04T04:00:15;97866.41;;;11.62;100.00
31771;BME280;18343;50.152;8.182;2022-07-04T04:02:43;97866.50;;;11.54;100.00
31771;BME280;18343;50.152;8.182;2022-07-04T04:05:10;97868.94;;;11.64;100.00
31771;BME280;18343;50.152;8.182;2022-07-04T04:07:59;97869.19;;;11.69;100.00
31771;BME280;18343;50.152;8.182;2022-07-04T04:10:29;97873.78;;;11.39;100.00
31771;BME280;18343;50.152;8.182;2022-07-04T04:12:57;97872.75;;;11.54;100.00
31771;BME280;18343;50.152;8.182;2022-07-04T04:15:25;97879.31;;;11.67;100.00
31771;BME280;18343;50.152;8.182;2022-07-04T04:17:54;97877.00;;;11.64;100.00
31771;BME280;18343;50.152;8.182;2022-07-04T04:20:21;97883.53;;;11.40;100.00
31771;BME280;18343;50.152;8.182;2022-07-04T04:22:48;97879.66;;;11.13;100.00
31771;BME280;18343;50.152;8.182;2022-07-04T04:25:21;97877.22;;;11.33;100.00
31771;BME280;18343;50.152;8.182;2022-07-04T04:27:48;97876.94;;;11.28;100.00
31771;BME280;18343;50.152;8.182;2022-07-04T04:30:16;97876.03;;;11.35;100.00
31771;BME280;18343;50.152;8.182;2022-07-04T04:32:43;97880.28;;;11.44;100.00
31771;BME280;18343;50.152;8.182;2022-07-04T04:35:11;97881.47;;;11.57;100.00
31771;BME280;18343;50.152;8.182;2022-07-04T04:37:38;97886.56;;;11.66;100.00
31771;BME280;18343;50.152;8.182;2022-07-04T04:40:07;97890.38;;;11.86;100.00
31771;BME280;18343;50.152;8.182;2022-07-04T04:42:36;97888.16;;;12.11;100.00
31771;BME280;18343;50.152;8.182;2022-07-04T04:45:06;97891.44;;;12.49;100.00
31771;BME280;18343;50.152;8.182;2022-07-04T04:47:34;97896.94;;;12.63;100.00
31771;BME280;18343;50.152;8.182;2022-07-04T04:50:01;97890.69;;;12.83;100.00
31771;BME280;18343;50.152;8.182;2022-07-04T04:52:29;97896.94;;;12.91;100.00
31771;BME280;18343;50.152;8.182;2022-07-04T04:54:57;97885.97;;;12.92;100.00
31771;BME280;18343;50.152;8.182;2022-07-04T04:57:24;97887.19;;;13.17;100.00
31771;BME280;18343;50.152;8.182;2022-07-04T04:59:53;97899.03;;;13.16;100.00
31771;BME280;18343;50.152;8.182;2022-07-04T05:02:20;97904.34;;;13.31;100.00
31771;BME280;18343;50.152;8.182;2022-07-04T05:04:48;97901.44;;;13.05;100.00
31771;BME280;18343;50.152;8.182;2022-07-04T05:07:15;97911.56;;;13.24;100.00
31771;BME280;18343;50.152;8.182;2022-07-04T05:09:43;97911.03;;;13.42;100.00
31771;BME280;18343;50.152;8.182;2022-07-04T05:12:10;97911.50;;;13.52;100.00
31771;BME280;18343;50.152;8.182;2022-07-04T05:14:37;97913.81;;;13.20;100.00
31771;BME280;18343;50.152;8.182;2022-07-04T05:17:06;97912.34;;;13.52;100.00
31771;BME280;18343;50.152;8.182;2022-07-04T05:19:33;97919.53;;;13.73;100.00
31771;BME280;18343;50.152;8.182;2022-07-04T05:22:01;97915.22;;;13.85;100.00
31771;BME280;18343;50.152;8.182;2022-07-04T05:24:28;97911.50;;;14.00;100.00
31771;BME280;18343;50.152;8.182;2022-07-04T05:26:55;97911.59;;;14.19;100.00
31771;BME280;18343;50.152;8.182;2022-07-04T05:29:25;97916.69;;;14.49;100.00
31771;BME280;18343;50.152;8.182;2022-07-04T05:31:53;97917.09;;;14.52;100.00
31771;BME280;18343;50.152;8.182;2022-07-04T05:34:22;97919.63;;;14.80;100.00
31771;BME280;18343;50.152;8.182;2022-07-04T05:36:49;97913.16;;;14.95;100.00
31771;BME280;18343;50.152;8.182;2022-07-04T05:39:16;97913.97;;;15.08;99.63
31771;BME280;18343;50.152;8.182;2022-07-04T05:41:44;97914.41;;;15.32;96.94
31771;BME280;18343;50.152;8.182;2022-07-04T05:44:11;97908.72;;;15.40;94.66
31771;BME280;18343;50.152;8.182;2022-07-04T05:46:38;97914.31;;;15.65;92.05
31771;BME280;18343;50.152;8.182;2022-07-04T05:49:06;97913.88;;;15.74;88.50
31771;BME280;18343;50.152;8.182;2022-07-04T05:51:37;97912.84;;;16.20;86.71
31771;BME280;18343;50.152;8.182;2022-07-04T05:54:05;97914.09;;;16.24;84.17
31771;BME280;18343;50.152;8.182;2022-07-04T05:56:32;97916.66;;;16.44;80.69
31771;BME280;18343;50.152;8.182;2022-07-04T05:58:59;97916.63;;;16.50;81.14
31771;BME280;18343;50.152;8.182;2022-07-04T06:01:26;97916.38;;;16.65;81.53
31771;BME280;18343;50.152;8.182;2022-07-04T06:03:54;97921.84;;;16.90;79.12
31771;BME280;18343;50.152;8.182;2022-07-04T06:06:21;97920.56;;;16.92;77.16
31771;BME280;18343;50.152;8.182;2022-07-04T06:08:50;97925.69;;;17.25;76.46
31771;BME280;18343;50.152;8.182;2022-07-04T06:11:17;97912.97;;;16.70;76.33
31771;BME280;18343;50.152;8.182;2022-07-04T06:13:45;97920.34;;;17.19;74.59
31771;BME280;18343;50.152;8.182;2022-07-04T06:16:12;97929.47;;;17.24;72.98
31771;BME280;18343;50.152;8.182;2022-07-04T06:18:39;97929.53;;;17.61;70.95
31771;BME280;18343;50.152;8.182;2022-07-04T06:21:07;97933.28;;;17.42;70.53
31771;BME280;18343;50.152;8.182;2022-07-04T06:23:34;97928.16;;;17.77;68.33
31771;BME280;18343;50.152;8.182;2022-07-04T06:26:03;97926.38;;;17.82;69.80
31771;BME280;18343;50.152;8.182;2022-07-04T06:28:31;97929.50;;;17.68;69.14
31771;BME280;18343;50.152;8.182;2022-07-04T06:30:58;97930.22;;;18.11;69.47
31771;BME280;18343;50.152;8.182;2022-07-04T06:33:26;97933.63;;;18.07;68.60
31771;BME280;18343;50.152;8.182;2022-07-04T06:35:53;97919.09;;;18.13;67.90
31771;BME280;18343;50.152;8.182;2022-07-04T06:38:23;97919.19;;;18.54;66.41
31771;BME280;18343;50.152;8.182;2022-07-04T06:40:53;97917.00;;;18.15;67.67
31771;BME280;18343;50.152;8.182;2022-07-04T06:43:24;97914.56;;;18.55;66.90
31771;BME280;18343;50.152;8.182;2022-07-04T06:45:52;97910.56;;;18.57;65.62
31771;BME280;18343;50.152;8.182;2022-07-04T06:48:20;97902.56;;;18.74;66.04
31771;BME280;18343;50.152;8.182;2022-07-04T06:50:49;97895.91;;;18.70;67.13
31771;BME280;18343;50.152;8.182;2022-07-04T06:53:18;97901.03;;;18.90;65.50
31771;BME280;18343;50.152;8.182;2022-07-04T06:55:47;97900.13;;;18.96;63.71
31771;BME280;18343;50.152;8.182;2022-07-04T06:58:14;97897.44;;;19.54;62.62
31771;BME280;18343;50.152;8.182;2022-07-04T07:00:43;97887.69;;;19.23;62.96
31771;BME280;18343;50.152;8.182;2022-07-04T07:03:12;97880.59;;;19.34;63.43
31771;BME280;18343;50.152;8.182;2022-07-04T07:05:40;97887.00;;;19.51;59.84
31771;BME280;18343;50.152;8.182;2022-07-04T07:08:08;97882.66;;;19.90;60.34
31771;BME280;18343;50.152;8.182;2022-07-04T07:10:38;97879.00;;;19.73;59.53
31771;BME280;18343;50.152;8.182;2022-07-04T07:13:06;97882.25;;;19.35;59.89
31771;BME280;18343;50.152;8.182;2022-07-04T07:15:35;97878.81;;;18.33;61.98
31771;BME280;18343;50.152;8.182;2022-07-04T07:18:03;97878.50;;;18.71;63.42
31771;BME280;18343;50.152;8.182;2022-07-04T07:20:33;97878.81;;;19.05;60.75
31771;BME280;18343;50.152;8.182;2022-07-04T07:23:02;97881.06;;;19.54;58.48
31771;BME280;18343;50.152;8.182;2022-07-04T07:25:30;97863.81;;;19.77;58.04
31771;BME280;18343;50.152;8.182;2022-07-04T07:28:00;97874.97;;;18.94;59.27
31771;BME280;18343;50.152;8.182;2022-07-04T07:30:27;97875.59;;;19.31;58.42
31771;BME280;18343;50.152;8.182;2022-07-04T07:32:55;97882.94;;;18.84;58.77
31771;BME280;18343;50.152;8.182;2022-07-04T07:35:24;97881.84;;;18.43;59.16
31771;BME280;18343;50.152;8.182;2022-07-04T07:37:51;97881.41;;;19.23;57.74
31771;BME280;18343;50.152;8.182;2022-07-04T07:40:19;97880.91;;;19.73;56.78
31771;BME280;18343;50.152;8.182;2022-07-04T07:42:47;97882.47;;;19.45;56.21
31771;BME280;18343;50.152;8.182;2022-07-04T07:45:15;97880.13;;;20.01;54.26
31771;BME280;18343;50.152;8.182;2022-07-04T07:47:42;97888.50;;;19.82;54.90
31771;BME280;18343;50.152;8.182;2022-07-04T07:50:10;97882.97;;;20.06;54.54
31771;BME280;18343;50.152;8.182;2022-07-04T07:52:39;97884.59;;;19.78;55.11
31771;BME280;18343;50.152;8.182;2022-07-04T07:55:07;97885.69;;;20.46;52.38
31771;BME280;18343;50.152;8.182;2022-07-04T07:57:37;97893.41;;;18.69;55.12
31771;BME280;18343;50.152;8.182;2022-07-04T08:00:07;97878.66;;;20.21;52.91
31771;BME280;18343;50.152;8.182;2022-07-04T08:02:35;97882.50;;;20.82;51.86
31771;BME280;18343;50.152;8.182;2022-07-04T08:05:21;97886.03;;;20.09;51.98
31771;BME280;18343;50.152;8.182;2022-07-04T08:07:50;97883.81;;;20.46;50.99
31771;BME280;18343;50.152;8.182;2022-07-04T08:10:17;97887.47;;;20.85;52.80
31771;BME280;18343;50.152;8.182;2022-07-04T08:12:48;97882.06;;;19.88;52.31
31771;BME280;18343;50.152;8.182;2022-07-04T08:15:16;97885.91;;;19.29;53.41
31771;BME280;18343;50.152;8.182;2022-07-04T08:17:44;97875.72;;;20.68;51.04
31771;BME280;18343;50.152;8.182;2022-07-04T08:20:12;97870.69;;;20.20;50.25
31771;BME280;18343;50.152;8.182;2022-07-04T08:22:40;97870.59;;;20.88;49.14
31771;BME280;18343;50.152;8.182;2022-07-04T08:25:11;97873.56;;;20.13;51.07
31771;BME280;18343;50.152;8.182;2022-07-04T08:27:40;97864.03;;;21.06;48.48
31771;BME280;18343;50.152;8.182;2022-07-04T08:30:08;97861.28;;;21.06;47.20
31771;BME280;18343;50.152;8.182;2022-07-04T08:32:35;97857.19;;;21.04;47.30
31771;BME280;18343;50.152;8.182;2022-07-04T08:35:04;97855.81;;;20.56;49.05
31771;BME280;18343;50.152;8.182;2022-07-04T08:37:32;97860.94;;;20.52;48.32
31771;BME280;18343;50.152;8.182;2022-07-04T08:39:59;97853.66;;;21.58;46.01
31771;BME280;18343;50.152;8.182;2022-07-04T08:42:30;97853.66;;;22.24;43.41
31771;BME280;18343;50.152;8.182;2022-07-04T08:45:03;97848.78;;;21.66;42.31
31771;BME280;18343;50.152;8.182;2022-07-04T08:47:35;97845.44;;;21.58;44.22
31771;BME280;18343;50.152;8.182;2022-07-04T08:50:10;97847.75;;;22.10;45.31
31771;BME280;18343;50.152;8.182;2022-07-04T08:52:42;97846.19;;;21.98;44.95
31771;BME280;18343;50.152;8.182;2022-07-04T08:55:11;97851.53;;;21.10;43.56
31771;BME280;18343;50.152;8.182;2022-07-04T08:57:58;97833.84;;;21.95;43.98
31771;BME280;18343;50.152;8.182;2022-07-04T09:00:43;97840.38;;;22.16;43.07
31771;BME280;18343;50.152;8.182;2022-07-04T09:03:12;97837.50;;;20.56;45.04
31771;BME280;18343;50.152;8.182;2022-07-04T09:05:40;97844.41;;;21.65;45.38
31771;BME280;18343;50.152;8.182;2022-07-04T09:08:07;97838.50;;;21.17;42.76
31771;BME280;18343;50.152;8.182;2022-07-04T09:10:35;97834.50;;;21.80;42.84
31771;BME280;18343;50.152;8.182;2022-07-04T09:13:06;97839.06;;;21.75;41.28
31771;BME280;18343;50.152;8.182;2022-07-04T09:15:34;97846.94;;;22.37;44.11
31771;BME280;18343;50.152;8.182;2022-07-04T09:18:02;97836.91;;;21.55;45.69
31771;BME280;18343;50.152;8.182;2022-07-04T09:20:32;97837.66;;;21.72;42.29
31771;BME280;18343;50.152;8.182;2022-07-04T09:23:00;97831.56;;;22.62;41.11
31771;BME280;18343;50.152;8.182;2022-07-04T09:25:27;97835.75;;;21.51;41.01
31771;BME280;18343;50.152;8.182;2022-07-04T09:27:56;97837.69;;;22.75;41.07
31771;BME280;18343;50.152;8.182;2022-07-04T09:30:27;97819.59;;;23.06;40.20
31771;BME280;18343;50.152;8.182;2022-07-04T09:32:57;97821.09;;;21.62;44.86
31771;BME280;18343;50.152;8.182;2022-07-04T09:35:29;97820.81;;;22.29;42.27
31771;BME280;18343;50.152;8.182;2022-07-04T09:38:04;97825.59;;;22.17;41.39
31771;BME280;18343;50.152;8.182;2022-07-04T09:40:35;97831.28;;;22.32;42.15
31771;BME280;18343;50.152;8.182;2022-07-04T09:43:24;97816.06;;;23.10;38.06
31771;BME280;18343;50.152;8.182;2022-07-04T09:45:58;97828.63;;;22.74;38.74
31771;BME280;18343;50.152;8.182;2022-07-04T09:48:26;97819.03;;;22.40;42.26
31771;BME280;18343;50.152;8.182;2022-07-04T09:50:54;97817.25;;;23.19;40.45
31771;BME280;18343;50.152;8.182;2022-07-04T09:53:27;97819.00;;;23.41;39.76
31771;BME280;18343;50.152;8.182;2022-07-04T09:55:54;97822.50;;;21.65;42.19
31771;BME280;18343;50.152;8.182;2022-07-04T09:58:21;97813.75;;;22.06;40.54
31771;BME280;18343;50.152;8.182;2022-07-04T10:00:49;97831.34;;;23.01;41.53
31771;BME280;18343;50.152;8.182;2022-07-04T10:03:21;97820.44;;;22.20;42.27
31771;BME280;18343;50.152;8.182;2022-07-04T10:06:03;97808.56;;;23.90;38.70
31771;BME280;18343;50.152;8.182;2022-07-04T10:08:32;97800.59;;;23.36;40.90
31771;BME280;18343;50.152;8.182;2022-07-04T10:11:01;97809.28;;;21.78;43.00
31771;BME280;18343;50.152;8.182;2022-07-04T10:13:30;97794.81;;;22.90;40.27
31771;BME280;18343;50.152;8.182;2022-07-04T10:16:03;97797.25;;;23.29;36.88
31771;BME280;18343;50.152;8.182;2022-07-04T10:18:32;97794.84;;;23.38;37.99
31771;BME280;18343;50.152;8.182;2022-07-04T10:21:01;97803.41;;;22.13;38.70
31771;BME280;18343;50.152;8.182;2022-07-04T10:23:29;97804.69;;;23.76;39.27
31771;BME280;18343;50.152;8.182;2022-07-04T10:25:58;97809.25;;;23.60;38.85
31771;BME280;18343;50.152;8.182;2022-07-04T10:28:26;97812.00;;;23.60;35.73
31771;BME280;18343;50.152;8.182;2022-07-04T10:30:55;97819.75;;;23.31;38.58
31771;BME280;18343;50.152;8.182;2022-07-04T10:33:25;97818.78;;;24.10;34.62
31771;BME280;18343;50.152;8.182;2022-07-04T10:35:56;97821.91;;;23.66;37.64
31771;BME280;18343;50.152;8.182;2022-07-04T10:38:46;97825.78;;;24.43;35.64
31771;BME280;18343;50.152;8.182;2022-07-04T10:41:13;97819.88;;;23.99;36.40
31771;BME280;18343;50.152;8.182;2022-07-04T10:44:03;97822.06;;;24.02;35.49
31771;BME280;18343;50.152;8.182;2022-07-04T10:46:49;97826.03;;;24.26;36.24
31771;BME280;18343;50.152;8.182;2022-07-04T10:49:27;97834.69;;;23.45;34.64
31771;BME280;18343;50.152;8.182;2022-07-04T10:52:11;97830.72;;;24.31;36.14
31771;BME280;18343;50.152;8.182;2022-07-04T10:54:49;97821.88;;;23.61;32.48
31771;BME280;18343;50.152;8.182;2022-07-04T10:57:18;97830.31;;;23.49;37.03
31771;BME280;18343;50.152;8.182;2022-07-04T11:00:04;97827.69;;;24.42;34.41
31771;BME280;18343;50.152;8.182;2022-07-04T11:02:36;97825.50;;;24.44;36.43
31771;BME280;18343;50.152;8.182;2022-07-04T11:05:08;97833.66;;;24.19;34.55
31771;BME280;18343;50.152;8.182;2022-07-04T11:08:07;97830.97;;;23.67;33.14
31771;BME280;18343;50.152;8.182;2022-07-04T11:10:40;97829.34;;;23.28;36.31
31771;BME280;18343;50.152;8.182;2022-07-04T11:13:25;97822.38;;;24.15;32.95
31771;BME280;18343;50.152;8.182;2022-07-04T11:16:01;97825.25;;;24.51;36.45
31771;BME280;18343;50.152;8.182;2022-07-04T11:18:29;97830.44;;;24.42;36.29
31771;BME280;18343;50.152;8.182;2022-07-04T11:20:57;97826.91;;;24.67;36.06
31771;BME280;18343;50.152;8.182;2022-07-04T11:23:26;97819.97;;;24.39;32.10
31771;BME280;18343;50.152;8.182;2022-07-04T11:25:53;97817.72;;;24.21;33.19
31771;BME280;18343;50.152;8.182;2022-07-04T11:28:24;97816.97;;;24.41;33.55
31771;BME280;18343;50.152;8.182;2022-07-04T11:30:55;97806.84;;;24.56;35.13
31771;BME280;18343;50.152;8.182;2022-07-04T11:33:25;97812.34;;;25.07;33.45
31771;BME280;18343;50.152;8.182;2022-07-04T11:36:03;97812.34;;;24.56;34.53
31771;BME280;18343;50.152;8.182;2022-07-04T11:38:53;97813.19;;;25.03;34.42
31771;BME280;18343;50.152;8.182;2022-07-04T11:41:24;97818.94;;;24.86;32.76
31771;BME280;18343;50.152;8.182;2022-07-04T11:44:11;97811.16;;;25.59;37.23
31771;BME280;18343;50.152;8.182;2022-07-04T11:47:18;97801.31;;;24.51;33.03
31771;BME280;18343;50.152;8.182;2022-07-04T11:49:49;97807.34;;;25.40;34.85
31771;BME280;18343;50.152;8.182;2022-07-04T11:52:20;97803.78;;;25.29;34.28
31771;BME280;18343;50.152;8.182;2022-07-04T11:54:50;97810.88;;;25.60;34.74
31771;BME280;18343;50.152;8.182;2022-07-04T11:57:21;97797.78;;;24.96;30.37
31771;BME280;18343;50.152;8.182;2022-07-04T12:02:52;97791.81;;;25.74;31.56
31771;BME280;18343;50.152;8.182;2022-07-04T12:05:26;97793.53;;;25.45;31.56
31771;BME280;18343;50.152;8.182;2022-07-04T12:07:54;97796.13;;;25.11;34.50
31771;BME280;18343;50.152;8.182;2022-07-04T12:10:26;97792.50;;;24.64;32.60
31771;BME280;18343;50.152;8.182;2022-07-04T12:12:55;97784.25;;;24.29;32.70
31771;BME280;18343;50.152;8.182;2022-07-04T12:15:25;97792.53;;;25.15;33.35
31771;BME280;18343;50.152;8.182;2022-07-04T12:18:02;97783.50;;;25.94;35.31
31771;BME280;18343;50.152;8.182;2022-07-04T12:20:32;97781.88;;;25.78;31.63
31771;BME280;18343;50.152;8.182;2022-07-04T12:23:00;97788.94;;;25.20;32.85
31771;BME280;18343;50.152;8.182;2022-07-04T12:25:31;97784.28;;;25.10;33.57
31771;BME280;18343;50.152;8.182;2022-07-04T12:28:02;97782.97;;;23.74;32.98
31771;BME280;18343;50.152;8.182;2022-07-04T12:30:34;97778.50;;;24.66;34.40
31771;BME280;18343;50.152;8.182;2022-07-04T12:33:03;97780.56;;;25.55;32.29
31771;BME280;18343;50.152;8.182;2022-07-04T12:35:40;97772.66;;;25.34;32.37
31771;BME280;18343;50.152;8.182;2022-07-04T12:38:10;97772.09;;;25.42;33.83
31771;BME280;18343;50.152;8.182;2022-07-04T12:40:52;97775.75;;;25.02;32.89
31771;BME280;18343;50.152;8.182;2022-07-04T12:43:20;97776.44;;;23.95;34.91
31771;BME280;18343;50.152;8.182;2022-07-04T12:45:50;97778.78;;;24.49;33.72
31771;BME280;18343;50.152;8.182;2022-07-04T12:48:24;97781.06;;;25.83;32.86
31771;BME280;18343;50.152;8.182;2022-07-04T12:50:52;97784.81;;;25.17;32.43
31771;BME280;18343;50.152;8.182;2022-07-04T12:53:26;97776.13;;;25.75;31.53
31771;BME280;18343;50.152;8.182;2022-07-04T12:56:04;97776.25;;;25.39;32.76
31771;BME280;18343;50.152;8.182;2022-07-04T12:58:33;97762.78;;;24.36;33.51
31771;BME280;18343;50.152;8.182;2022-07-04T13:01:02;97769.09;;;25.18;33.87
31771;BME280;18343;50.152;8.182;2022-07-04T13:03:30;97763.13;;;24.60;32.92
31771;BME280;18343;50.152;8.182;2022-07-04T13:05:57;97764.75;;;24.96;31.49
31771;BME280;18343;50.152;8.182;2022-07-04T13:08:25;97774.81;;;25.47;30.95
31771;BME280;18343;50.152;8.182;2022-07-04T13:10:58;97759.84;;;26.27;31.55
31771;BME280;18343;50.152;8.182;2022-07-04T13:13:44;97759.69;;;25.44;28.75
31771;BME280;18343;50.152;8.182;2022-07-04T13:16:11;97761.94;;;26.02;28.97